Time;durP1;ratioP1;P1;durP2;ratioP2;P2;SDS_P1;SDS_P2;PMS_P1;PMS_P2;Temp;Humidity;BMP_temperature;BMP_pressure;BME280_temperature;BME280_humidity;BME280_pressure;Samples;Min_cycle;Max_cycle;Signal;HPM_P1;HPM_P2
2022/09/08 00:01:50;;;;;;;442.33;227.40;;;;;;;;;;5005551;28;20489;-52
2022/09/08 00:04:16;;;;;;;393.05;207.07;;;;;;;;;;5010509;28;20477;-53
2022/09/08 00:06:44;;;;;;;430.45;224.57;;;;;;;;;;5010268;28;20529;-53
2022/09/08 00:09:10;;;;;;;450.88;233.88;;;;;;;;;;5009802;28;20311;-53
2022/09/08 00:11:39;;;;;;;460.20;237.20;;;;;;;;;;5004883;28;20199;-55
2022/09/08 00:14:06;;;;;;;465.98;234.93;;;;;;;;;;4997806;28;20235;-53
2022/09/08 00:16:32;;;;;;;408.75;212.40;;;;;;;;;;5010925;28;20181;-53
2022/09/08 00:18:58;;;;;;;458.45;233.93;;;;;;;;;;5006677;28;20561;-53
2022/09/08 00:21:26;;;;;;;416.33;215.38;;;;;;;;;;5006274;28;20192;-53
2022/09/08 00:23:52;;;;;;;405.52;213.13;;;;;;;;;;5013526;28;20213;-53
2022/09/08 00:26:19;;;;;;;392.00;208.07;;;;;;;;;;5010813;28;20242;-53
2022/09/08 00:28:46;;;;;;;441.35;227.70;;;;;;;;;;5009724;28;20204;-53
2022/09/08 00:31:12;;;;;;;382.20;202.25;;;;;;;;;;5009095;28;20180;-53
2022/09/08 00:33:38;;;;;;;422.75;218.27;;;;;;;;;;5007295;28;20219;-53
2022/09/08 00:36:04;;;;;;;420.15;210.27;;;;;;;;;;5003136;28;20204;-52
2022/09/08 00:38:31;;;;;;;430.00;226.32;;;;;;;;;;5007034;28;20549;-52
2022/09/08 00:40:57;;;;;;;447.95;227.82;;;;;;;;;;5003187;28;20184;-53
2022/09/08 00:43:30;;;;;;;413.00;213.63;;;;;;;;;;5001681;28;20197;-52
2022/09/08 00:45:58;;;;;;;394.60;210.07;;;;;;;;;;5007271;28;20254;-53
2022/09/08 00:48:25;;;;;;;377.40;203.30;;;;;;;;;;5014476;28;20402;-53
2022/09/08 00:50:51;;;;;;;368.33;201.20;;;;;;;;;;5015672;28;20228;-53
2022/09/08 00:53:19;;;;;;;444.77;227.07;;;;;;;;;;5008106;28;20498;-53
2022/09/08 00:55:46;;;;;;;479.23;242.30;;;;;;;;;;5005272;28;20256;-53
2022/09/08 00:58:12;;;;;;;408.08;214.93;;;;;;;;;;5006133;28;20204;-53
2022/09/08 01:00:39;;;;;;;377.30;204.13;;;;;;;;;;5005517;28;20680;-54
2022/09/08 01:03:10;;;;;;;412.88;215.25;;;;;;;;;;5011439;28;20299;-53
2022/09/08 01:05:58;;;;;;;420.52;219.68;;;;;;;;;;5011743;28;20204;-53
2022/09/08 01:14:12;;;;;;;418.10;211.70;;;;;;;;;;5012230;28;20579;-53
2022/09/08 01:16:39;;;;;;;420.05;215.05;;;;;;;;;;5005506;28;20185;-52
2022/09/08 01:19:08;;;;;;;423.27;214.02;;;;;;;;;;5008038;28;20636;-53
2022/09/08 01:21:53;;;;;;;375.20;195.60;;;;;;;;;;5008820;28;20192;-52
2022/09/08 01:24:28;;;;;;;436.85;217.90;;;;;;;;;;5012694;28;20208;-52
2022/09/08 01:27:13;;;;;;;424.73;217.57;;;;;;;;;;5008868;28;20575;-53
2022/09/08 01:29:40;;;;;;;374.02;191.77;;;;;;;;;;5011542;28;20699;-52
2022/09/08 01:32:07;;;;;;;393.48;202.13;;;;;;;;;;5010886;28;20193;-52
2022/09/08 01:34:40;;;;;;;420.67;210.38;;;;;;;;;;5010486;28;20782;-53
2022/09/08 01:37:06;;;;;;;397.92;201.68;;;;;;;;;;5008864;28;20688;-53
2022/09/08 01:39:32;;;;;;;388.25;199.70;;;;;;;;;;4999005;28;20195;-53
2022/09/08 01:41:59;;;;;;;396.90;199.63;;;;;;;;;;5010228;28;20209;-53
2022/09/08 01:44:25;;;;;;;374.77;191.05;;;;;;;;;;5011556;28;20556;-53
2022/09/08 01:46:51;;;;;;;454.27;223.20;;;;;;;;;;5003462;28;20181;-53
2022/09/08 01:49:17;;;;;;;390.10;195.55;;;;;;;;;;5005822;28;20200;-53
2022/09/08 01:51:43;;;;;;;369.17;188.88;;;;;;;;;;5005550;28;20191;-53
2022/09/08 01:54:09;;;;;;;416.25;213.00;;;;;;;;;;5005396;28;20556;-53
2022/09/08 01:56:35;;;;;;;457.00;225.65;;;;;;;;;;5004975;28;20275;-53
2022/09/08 01:59:01;;;;;;;389.10;194.65;;;;;;;;;;5004804;28;20193;-52
2022/09/08 02:01:27;;;;;;;396.38;204.20;;;;;;;;;;5007470;28;20189;-53
2022/09/08 02:03:53;;;;;;;400.40;199.93;;;;;;;;;;5001994;28;22211;-53
2022/09/08 02:06:19;;;;;;;394.87;197.17;;;;;;;;;;5007665;28;20290;-53
2022/09/08 02:08:49;;;;;;;424.55;209.32;;;;;;;;;;5000196;28;20334;-53
2022/09/08 02:11:16;;;;;;;409.95;201.10;;;;;;;;;;5011688;28;20188;-52
2022/09/08 02:13:42;;;;;;;406.08;199.50;;;;;;;;;;5000479;28;20208;-53
2022/09/08 02:16:10;;;;;;;367.17;183.77;;;;;;;;;;5007668;28;20188;-52
2022/09/08 02:18:36;;;;;;;386.83;194.52;;;;;;;;;;5012763;28;20680;-53
2022/09/08 02:21:04;;;;;;;453.38;219.02;;;;;;;;;;5009024;28;20251;-52
2022/09/08 02:23:30;;;;;;;409.45;203.60;;;;;;;;;;5005426;28;20184;-53
2022/09/08 02:25:56;;;;;;;397.23;197.48;;;;;;;;;;5004362;28;20684;-52
2022/09/08 02:28:22;;;;;;;376.50;189.88;;;;;;;;;;5011051;28;20222;-53
2022/09/08 02:30:48;;;;;;;396.17;197.30;;;;;;;;;;5008266;28;20180;-53
2022/09/08 02:33:15;;;;;;;445.40;219.18;;;;;;;;;;5007910;28;20188;-53
2022/09/08 02:35:41;;;;;;;463.67;223.52;;;;;;;;;;5007611;28;20196;-52
2022/09/08 02:38:07;;;;;;;382.67;188.38;;;;;;;;;;5003048;28;20188;-52
2022/09/08 02:40:33;;;;;;;370.27;180.75;;;;;;;;;;5001669;28;20580;-53
2022/09/08 02:42:59;;;;;;;390.15;190.88;;;;;;;;;;5007641;28;20189;-53
2022/09/08 02:45:26;;;;;;;451.95;214.60;;;;;;;;;;5003735;28;20513;-53
2022/09/08 02:47:51;;;;;;;407.67;199.05;;;;;;;;;;5006533;28;20212;-53
2022/09/08 02:50:17;;;;;;;400.77;194.98;;;;;;;;;;5012219;28;20191;-52
2022/09/08 02:52:43;;;;;;;351.90;179.98;;;;;;;;;;5014930;28;20582;-53
2022/09/08 02:55:09;;;;;;;379.50;188.60;;;;;;;;;;5002247;28;20258;-52
2022/09/08 02:57:35;;;;;;;420.73;208.27;;;;;;;;;;5007282;28;20196;-52
2022/09/08 03:00:01;;;;;;;425.90;206.63;;;;;;;;;;5010522;28;20568;-53
2022/09/08 03:02:27;;;;;;;366.52;183.65;;;;;;;;;;5003586;28;20192;-52
2022/09/08 03:04:53;;;;;;;447.02;217.15;;;;;;;;;;4999270;28;20315;-53
2022/09/08 03:07:19;;;;;;;354.23;183.25;;;;;;;;;;5009289;28;20268;-53
2022/09/08 03:09:46;;;;;;;465.63;223.52;;;;;;;;;;4998071;28;20212;-53
2022/09/08 03:12:12;;;;;;;395.63;196.20;;;;;;;;;;5003121;28;20654;-53
2022/09/08 03:14:38;;;;;;;348.90;178.75;;;;;;;;;;4999535;28;20295;-53
2022/09/08 03:17:04;;;;;;;373.90;188.27;;;;;;;;;;5008884;28;20279;-52
2022/09/08 03:19:30;;;;;;;349.52;179.98;;;;;;;;;;5009088;28;20267;-53
2022/09/08 03:21:56;;;;;;;375.07;190.77;;;;;;;;;;5010932;28;20192;-52
2022/09/08 03:24:22;;;;;;;406.67;201.27;;;;;;;;;;4999990;28;20259;-53
2022/09/08 03:26:48;;;;;;;406.47;205.40;;;;;;;;;;5001839;28;20765;-53
2022/09/08 03:29:14;;;;;;;363.65;182.63;;;;;;;;;;5007267;28;20715;-52
2022/09/08 03:31:39;;;;;;;370.87;191.73;;;;;;;;;;5004697;28;20180;-53
2022/09/08 03:34:06;;;;;;;412.15;203.23;;;;;;;;;;5000426;28;20258;-52
2022/09/08 03:36:32;;;;;;;386.15;192.68;;;;;;;;;;5008826;28;20287;-53
2022/09/08 03:38:58;;;;;;;458.65;223.70;;;;;;;;;;5002493;28;20659;-53
2022/09/08 03:41:24;;;;;;;368.58;183.90;;;;;;;;;;4998775;28;20224;-53
2022/09/08 03:43:50;;;;;;;415.20;204.18;;;;;;;;;;4997683;28;20235;-53
2022/09/08 03:46:17;;;;;;;334.20;171.15;;;;;;;;;;5007912;28;20719;-52
2022/09/08 03:48:43;;;;;;;430.02;213.20;;;;;;;;;;5005544;28;20215;-53
2022/09/08 03:51:10;;;;;;;404.90;199.07;;;;;;;;;;5009940;28;20187;-53
2022/09/08 03:53:36;;;;;;;382.55;191.70;;;;;;;;;;5009094;28;20302;-53
2022/09/08 03:56:04;;;;;;;375.10;191.60;;;;;;;;;;5009640;28;20188;-52
2022/09/08 03:58:30;;;;;;;373.77;187.35;;;;;;;;;;5031129;23;20228;-53
2022/09/08 04:00:56;;;;;;;390.45;198.95;;;;;;;;;;5030904;28;20249;-53
2022/09/08 04:03:22;;;;;;;347.30;176.38;;;;;;;;;;5036363;28;20183;-53
2022/09/08 04:05:48;;;;;;;382.65;190.95;;;;;;;;;;5037350;28;20667;-53
2022/09/08 04:08:14;;;;;;;398.65;208.90;;;;;;;;;;5031554;28;20992;-53
2022/09/08 04:10:42;;;;;;;438.33;218.80;;;;;;;;;;5026112;28;20188;-53
2022/09/08 04:13:08;;;;;;;410.33;204.68;;;;;;;;;;5027762;28;20203;-53
2022/09/08 04:15:34;;;;;;;416.30;209.18;;;;;;;;;;5035023;28;20222;-53
2022/09/08 04:18:00;;;;;;;382.90;195.43;;;;;;;;;;5024783;28;20757;-53
2022/09/08 04:20:26;;;;;;;384.70;195.47;;;;;;;;;;5033686;28;20667;-53
2022/09/08 04:22:52;;;;;;;383.60;195.65;;;;;;;;;;5037624;28;20262;-53
2022/09/08 04:25:18;;;;;;;347.67;179.13;;;;;;;;;;5034487;28;20204;-53
2022/09/08 04:27:44;;;;;;;359.93;193.90;;;;;;;;;;5037553;28;20694;-52
2022/09/08 04:30:10;;;;;;;339.87;180.80;;;;;;;;;;5035284;28;20180;-52
2022/09/08 04:32:38;;;;;;;366.77;194.90;;;;;;;;;;5036881;28;20672;-53
2022/09/08 04:35:04;;;;;;;383.57;200.03;;;;;;;;;;5037622;28;20203;-53
2022/09/08 04:37:30;;;;;;;335.63;182.37;;;;;;;;;;5037961;28;20245;-52
2022/09/08 04:39:56;;;;;;;400.77;205.23;;;;;;;;;;5034247;28;20188;-53
2022/09/08 04:42:23;;;;;;;356.90;184.93;;;;;;;;;;5037137;28;20647;-53
2022/09/08 04:44:49;;;;;;;339.30;184.37;;;;;;;;;;5040953;28;20314;-53
2022/09/08 04:47:15;;;;;;;389.25;201.20;;;;;;;;;;5041246;28;20407;-53
2022/09/08 04:49:41;;;;;;;383.07;200.97;;;;;;;;;;5039259;28;20212;-53
2022/09/08 04:52:07;;;;;;;369.43;191.20;;;;;;;;;;5040679;28;20228;-53
2022/09/08 04:54:33;;;;;;;337.63;181.97;;;;;;;;;;5043102;28;20222;-53
2022/09/08 04:56:58;;;;;;;347.30;181.03;;;;;;;;;;5038478;28;20191;-53
2022/09/08 04:59:25;;;;;;;379.10;193.13;;;;;;;;;;5038500;28;20195;-53
2022/09/08 05:01:51;;;;;;;371.10;190.70;;;;;;;;;;5033288;28;20198;-53
2022/09/08 05:04:17;;;;;;;432.07;198.97;;;;;;;;;;5029332;28;20213;-53
2022/09/08 05:06:44;;;;;;;340.73;174.87;;;;;;;;;;5038129;28;20190;-53
2022/09/08 05:09:11;;;;;;;370.30;187.43;;;;;;;;;;5040415;28;20667;-53
2022/09/08 05:11:37;;;;;;;436.17;203.63;;;;;;;;;;5031288;28;20175;-53
2022/09/08 05:14:04;;;;;;;393.53;200.60;;;;;;;;;;5032758;28;20612;-53
2022/09/08 05:16:30;;;;;;;415.53;202.73;;;;;;;;;;5033620;28;20232;-53
2022/09/08 05:18:58;;;;;;;739.90;305.17;;;;;;;;;;5022981;28;20383;-53
2022/09/08 05:21:25;;;;;;;414.47;204.93;;;;;;;;;;5019301;28;20190;-53
2022/09/08 05:23:52;;;;;;;365.87;194.07;;;;;;;;;;5029033;28;20715;-53
2022/09/08 05:26:19;;;;;;;400.60;204.50;;;;;;;;;;5032641;28;20261;-53
2022/09/08 05:28:45;;;;;;;435.93;216.93;;;;;;;;;;5033748;28;20280;-53
2022/09/08 05:31:18;;;;;;;379.60;194.90;;;;;;;;;;5039496;28;20179;-53
2022/09/08 05:33:45;;;;;;;393.27;197.03;;;;;;;;;;5027658;28;20203;-53
2022/09/08 05:36:12;;;;;;;395.60;200.57;;;;;;;;;;5027682;28;20184;-53
2022/09/08 05:38:38;;;;;;;412.23;214.37;;;;;;;;;;5033587;28;20547;-53
2022/09/08 05:41:04;;;;;;;458.57;232.30;;;;;;;;;;5032496;28;20489;-53
2022/09/08 05:43:30;;;;;;;347.80;182.33;;;;;;;;;;5034778;28;20552;-53
2022/09/08 05:45:56;;;;;;;392.20;200.35;;;;;;;;;;5034269;28;20700;-53
2022/09/08 05:48:22;;;;;;;363.77;193.50;;;;;;;;;;5037487;28;20376;-53
2022/09/08 05:50:48;;;;;;;370.70;196.82;;;;;;;;;;5032153;28;20184;-53
2022/09/08 05:53:15;;;;;;;416.23;214.13;;;;;;;;;;5028809;28;20192;-53
2022/09/08 05:55:41;;;;;;;426.65;220.38;;;;;;;;;;5025758;28;20703;-53
2022/09/08 05:58:08;;;;;;;385.23;204.70;;;;;;;;;;5023745;28;20209;-53
2022/09/08 06:00:34;;;;;;;389.98;215.43;;;;;;;;;;5032015;28;20278;-53
2022/09/08 06:03:00;;;;;;;469.38;239.90;;;;;;;;;;5023839;28;20696;-53
2022/09/08 06:05:26;;;;;;;414.70;216.85;;;;;;;;;;5014613;28;20207;-53
2022/09/08 06:07:52;;;;;;;354.25;193.07;;;;;;;;;;5023641;28;20188;-53
2022/09/08 06:10:18;;;;;;;411.20;202.17;;;;;;;;;;5029045;28;20184;-52
2022/09/08 06:12:45;;;;;;;455.33;218.13;;;;;;;;;;5032242;28;20179;-53
2022/09/08 06:15:11;;;;;;;475.65;230.43;;;;;;;;;;5024473;28;20204;-53
2022/09/08 06:17:37;;;;;;;440.15;226.75;;;;;;;;;;5022892;28;20226;-54
2022/09/08 06:20:04;;;;;;;392.30;206.55;;;;;;;;;;5025152;28;20365;-54
2022/09/08 06:22:32;;;;;;;469.02;231.50;;;;;;;;;;5003749;28;20195;-54
2022/09/08 06:24:58;;;;;;;421.45;216.40;;;;;;;;;;5027541;28;20211;-54
2022/09/08 06:27:34;;;;;;;416.08;224.52;;;;;;;;;;5038270;28;20654;-54
2022/09/08 06:30:11;;;;;;;439.02;225.63;;;;;;;;;;5017969;28;20284;-55
2022/09/08 06:32:43;;;;;;;482.42;236.20;;;;;;;;;;5027821;28;20262;-54
2022/09/08 06:35:16;;;;;;;365.58;205.98;;;;;;;;;;5025489;28;20549;-55
2022/09/08 06:37:45;;;;;;;452.23;226.77;;;;;;;;;;5021386;28;20183;-54
2022/09/08 06:40:13;;;;;;;382.10;203.68;;;;;;;;;;5034665;28;20262;-54
2022/09/08 06:42:44;;;;;;;401.33;218.38;;;;;;;;;;5030968;28;20587;-53
2022/09/08 06:45:13;;;;;;;458.50;243.95;;;;;;;;;;5023681;28;20237;-54
2022/09/08 06:47:42;;;;;;;422.38;230.82;;;;;;;;;;5027404;28;20702;-54
2022/09/08 06:50:12;;;;;;;453.30;239.57;;;;;;;;;;5020970;28;20314;-53
2022/09/08 06:52:44;;;;;;;408.25;220.13;;;;;;;;;;5034105;28;20184;-53
2022/09/08 06:55:18;;;;;;;434.95;236.57;;;;;;;;;;5029911;28;20234;-53
2022/09/08 06:57:44;;;;;;;456.50;248.05;;;;;;;;;;5029066;28;20275;-53
2022/09/08 07:00:13;;;;;;;390.27;219.30;;;;;;;;;;5028767;28;20195;-53
2022/09/08 07:02:58;;;;;;;429.65;234.80;;;;;;;;;;5020072;28;23521;-51
2022/09/08 07:05:45;;;;;;;387.38;222.45;;;;;;;;;;5037622;28;20349;-49
2022/09/08 07:08:20;;;;;;;350.77;209.23;;;;;;;;;;5037722;28;20239;-50
2022/09/08 07:10:49;;;;;;;357.75;210.52;;;;;;;;;;5044622;28;20387;-51
2022/09/08 07:13:47;;;;;;;381.40;217.27;;;;;;;;;;5039524;28;20218;-50
2022/09/08 07:16:25;;;;;;;380.08;221.38;;;;;;;;;;5014737;28;20187;-50
2022/09/08 07:18:54;;;;;;;383.00;220.43;;;;;;;;;;5031327;28;20184;-50
2022/09/08 07:21:29;;;;;;;405.55;226.25;;;;;;;;;;5031341;28;20176;-53
2022/09/08 07:23:56;;;;;;;473.38;253.73;;;;;;;;;;5021279;28;20594;-53
2022/09/08 07:26:28;;;;;;;456.27;248.18;;;;;;;;;;5021092;28;20191;-53
2022/09/08 07:28:58;;;;;;;788.45;383.70;;;;;;;;;;5017793;28;20664;-53
2022/09/08 07:31:25;;;;;;;459.63;246.93;;;;;;;;;;5026650;28;20180;-53
2022/09/08 07:33:53;;;;;;;533.97;282.98;;;;;;;;;;5018905;28;20203;-53
2022/09/08 07:36:28;;;;;;;525.83;269.10;;;;;;;;;;5027932;28;20179;-53
2022/09/08 07:38:55;;;;;;;431.48;231.52;;;;;;;;;;5032245;28;20530;-53
2022/09/08 07:41:28;;;;;;;741.28;333.23;;;;;;;;;;5012563;28;20211;-53
2022/09/08 07:43:59;;;;;;;433.13;231.68;;;;;;;;;;5016204;28;20859;-53
2022/09/08 07:46:48;;;;;;;466.48;241.80;;;;;;;;;;5011150;28;20187;-53
2022/09/08 07:49:33;;;;;;;425.10;230.52;;;;;;;;;;5022638;28;20230;-53
2022/09/08 07:52:10;;;;;;;459.52;235.07;;;;;;;;;;5021051;28;20192;-53
2022/09/08 07:54:52;;;;;;;495.35;271.42;;;;;;;;;;5013829;28;20207;-53
2022/09/08 07:57:27;;;;;;;460.00;258.65;;;;;;;;;;5028245;28;20221;-53
2022/09/08 08:00:01;;;;;;;443.38;236.05;;;;;;;;;;5028147;28;20198;-53
2022/09/08 08:02:39;;;;;;;478.00;245.80;;;;;;;;;;5022772;28;20188;-53
2022/09/08 08:05:05;;;;;;;416.77;226.15;;;;;;;;;;5025193;28;20215;-53
2022/09/08 08:07:46;;;;;;;544.17;260.65;;;;;;;;;;5019344;28;20269;-53
2022/09/08 08:10:19;;;;;;;466.05;235.00;;;;;;;;;;5024492;28;20190;-53
2022/09/08 08:13:05;;;;;;;496.20;246.45;;;;;;;;;;5030409;28;20863;-53
2022/09/08 08:15:47;;;;;;;435.83;242.57;;;;;;;;;;5028431;28;20365;-53
2022/09/08 08:18:19;;;;;;;424.35;234.43;;;;;;;;;;5032684;28;20854;-53
2022/09/08 08:21:04;;;;;;;500.50;252.27;;;;;;;;;;5016494;28;20190;-53
2022/09/08 08:23:47;;;;;;;409.25;225.27;;;;;;;;;;5032029;28;20183;-53
2022/09/08 08:26:27;;;;;;;511.67;258.27;;;;;;;;;;5030363;28;20200;-53
2022/09/08 08:29:05;;;;;;;481.33;246.48;;;;;;;;;;5033553;28;20203;-52
2022/09/08 08:31:43;;;;;;;403.25;220.32;;;;;;;;;;5026704;28;20190;-53
2022/09/08 08:34:18;;;;;;;451.75;254.85;;;;;;;;;;5025871;28;20684;-53
2022/09/08 08:36:45;;;;;;;517.90;274.77;;;;;;;;;;5023678;28;20635;-52
2022/09/08 08:39:17;;;;;;;453.40;235.20;;;;;;;;;;5026027;28;20180;-52
2022/09/08 08:41:46;;;;;;;440.83;225.60;;;;;;;;;;5022470;28;20217;-53
2022/09/08 08:44:30;;;;;;;504.15;259.17;;;;;;;;;;5024322;28;20234;-54
2022/09/08 08:47:17;;;;;;;468.00;253.10;;;;;;;;;;5026586;28;20192;-53
2022/09/08 08:49:43;;;;;;;431.08;240.77;;;;;;;;;;5019373;28;20254;-53
2022/09/08 08:52:15;;;;;;;406.27;231.45;;;;;;;;;;5034453;28;20664;-53
2022/09/08 08:54:50;;;;;;;442.70;238.30;;;;;;;;;;5030787;28;20275;-53
2022/09/08 08:57:19;;;;;;;459.80;234.43;;;;;;;;;;5019410;28;20183;-53
2022/09/08 08:59:54;;;;;;;479.35;248.50;;;;;;;;;;5020847;28;20292;-53
2022/09/08 09:02:39;;;;;;;529.33;262.70;;;;;;;;;;5019713;28;20233;-53
2022/09/08 09:05:20;;;;;;;402.80;222.30;;;;;;;;;;5031896;28;20571;-53
2022/09/08 09:07:49;;;;;;;441.20;240.50;;;;;;;;;;5023730;28;20175;-53
2022/09/08 09:10:15;;;;;;;440.05;243.25;;;;;;;;;;5034710;28;20207;-52
2022/09/08 09:12:44;;;;;;;523.85;280.85;;;;;;;;;;5017243;28;20298;-52
2022/09/08 09:15:13;;;;;;;469.50;255.95;;;;;;;;;;5023631;28;20279;-52
2022/09/08 09:17:55;;;;;;;456.00;239.18;;;;;;;;;;5036101;28;20719;-52
2022/09/08 09:20:25;;;;;;;466.02;253.30;;;;;;;;;;5030555;28;20570;-52
2022/09/08 09:23:04;;;;;;;492.60;271.67;;;;;;;;;;5028958;28;21371;-53
2022/09/08 09:25:37;;;;;;;442.25;245.20;;;;;;;;;;5033207;28;20667;-53
2022/09/08 09:28:03;;;;;;;501.30;271.98;;;;;;;;;;5030190;28;20219;-53
2022/09/08 09:30:48;;;;;;;437.35;235.40;;;;;;;;;;5021221;28;20180;-53
2022/09/08 09:33:23;;;;;;;514.55;261.30;;;;;;;;;;5021088;28;20687;-53
2022/09/08 09:35:49;;;;;;;433.33;242.20;;;;;;;;;;5029332;28;20200;-53
2022/09/08 09:38:34;;;;;;;575.05;286.63;;;;;;;;;;5025994;28;20187;-53
2022/09/08 09:41:12;;;;;;;528.63;289.35;;;;;;;;;;5024754;28;20639;-52
2022/09/08 09:43:53;;;;;;;436.42;243.32;;;;;;;;;;5022122;28;20195;-53
2022/09/08 09:46:38;;;;;;;458.60;255.05;;;;;;;;;;5029200;28;20675;-53
2022/09/08 09:49:06;;;;;;;396.42;230.18;;;;;;;;;;5039582;28;20211;-53
2022/09/08 09:51:32;;;;;;;434.65;257.05;;;;;;;;;;5035540;28;20270;-53
2022/09/08 09:54:37;;;;;;;421.90;241.95;;;;;;;;;;5025827;28;20195;-53
2022/09/08 09:57:15;;;;;;;493.23;277.40;;;;;;;;;;5029401;28;20195;-53
2022/09/08 09:59:44;;;;;;;417.50;251.82;;;;;;;;;;5075326;22;20286;-49
2022/09/08 10:02:10;;;;;;;410.20;248.10;;;;;;;;;;5085011;28;20634;-49
2022/09/08 10:04:48;;;;;;;383.45;231.90;;;;;;;;;;5087955;28;20196;-49
2022/09/08 10:07:17;;;;;;;424.65;247.18;;;;;;;;;;5087986;28;20270;-49
2022/09/08 10:09:49;;;;;;;396.92;232.70;;;;;;;;;;5088234;28;20198;-49
2022/09/08 10:12:31;;;;;;;387.95;229.65;;;;;;;;;;5087669;28;20637;-49
2022/09/08 10:14:59;;;;;;;398.77;235.13;;;;;;;;;;5088192;28;20182;-50
2022/09/08 10:17:43;;;;;;;409.88;236.93;;;;;;;;;;5087687;28;20170;-49
2022/09/08 10:20:28;;;;;;;383.08;225.90;;;;;;;;;;5088205;28;20225;-50
2022/09/08 10:23:12;;;;;;;409.20;238.27;;;;;;;;;;5087844;28;20178;-49
2022/09/08 10:25:52;;;;;;;387.60;234.55;;;;;;;;;;5087561;28;20582;-49
2022/09/08 10:28:35;;;;;;;394.08;232.52;;;;;;;;;;5086436;28;20284;-49
2022/09/08 10:31:19;;;;;;;385.55;229.85;;;;;;;;;;5087810;28;20563;-50
2022/09/08 10:33:48;;;;;;;404.58;234.57;;;;;;;;;;5087878;28;20194;-49
2022/09/08 10:36:14;;;;;;;404.73;238.38;;;;;;;;;;5087719;28;20181;-50
2022/09/08 10:38:59;;;;;;;392.88;233.30;;;;;;;;;;5087372;28;20185;-49
2022/09/08 10:41:42;;;;;;;412.20;239.13;;;;;;;;;;5087507;28;20269;-49
2022/09/08 10:44:17;;;;;;;410.92;239.05;;;;;;;;;;5087213;28;20193;-49
2022/09/08 10:46:57;;;;;;;385.63;231.23;;;;;;;;;;5087178;28;20173;-49
2022/09/08 10:49:32;;;;;;;400.05;232.93;;;;;;;;;;5087168;28;20239;-49
2022/09/08 10:52:07;;;;;;;415.17;241.18;;;;;;;;;;5086509;28;20174;-49
2022/09/08 10:54:42;;;;;;;454.77;260.65;;;;;;;;;;5086516;28;20213;-50
2022/09/08 10:57:21;;;;;;;422.40;247.98;;;;;;;;;;5082919;28;20223;-49
2022/09/08 11:00:06;;;;;;;401.75;236.25;;;;;;;;;;5087440;28;20200;-50
2022/09/08 11:02:35;;;;;;;391.98;233.23;;;;;;;;;;5087058;28;20177;-50
2022/09/08 11:05:16;;;;;;;396.95;235.82;;;;;;;;;;5087349;28;20676;-49
2022/09/08 11:08:00;;;;;;;405.88;246.05;;;;;;;;;;5087272;28;20240;-49
2022/09/08 11:10:26;;;;;;;405.25;245.93;;;;;;;;;;5086828;28;20653;-49
2022/09/08 11:13:12;;;;;;;372.33;228.35;;;;;;;;;;5086933;28;20263;-49
2022/09/08 11:15:38;;;;;;;383.60;235.15;;;;;;;;;;5087459;28;20205;-50
2022/09/08 11:18:25;;;;;;;375.80;231.50;;;;;;;;;;5086622;28;20171;-48
2022/09/08 11:20:51;;;;;;;398.55;241.00;;;;;;;;;;5087395;28;20165;-49
2022/09/08 11:23:27;;;;;;;413.13;246.18;;;;;;;;;;5087049;28;20190;-49
2022/09/08 11:25:56;;;;;;;421.52;247.35;;;;;;;;;;5086958;28;20162;-49
2022/09/08 11:28:39;;;;;;;414.25;246.15;;;;;;;;;;5087296;28;20194;-50
2022/09/08 11:31:24;;;;;;;374.50;228.35;;;;;;;;;;5087266;28;20697;-49
2022/09/08 11:33:56;;;;;;;410.42;244.07;;;;;;;;;;5086936;28;20205;-49
2022/09/08 11:36:45;;;;;;;386.52;239.20;;;;;;;;;;5087117;28;20650;-50
2022/09/08 11:39:19;;;;;;;403.52;242.95;;;;;;;;;;5086448;28;20189;-49
2022/09/08 11:42:03;;;;;;;380.02;234.95;;;;;;;;;;5086629;28;20225;-50
2022/09/08 11:44:47;;;;;;;381.08;228.18;;;;;;;;;;5086823;28;20625;-49
2022/09/08 11:47:31;;;;;;;410.38;239.93;;;;;;;;;;5086305;28;20228;-50
2022/09/08 11:50:13;;;;;;;403.13;237.55;;;;;;;;;;5086672;28;20684;-49
2022/09/08 11:52:39;;;;;;;396.05;236.18;;;;;;;;;;5090768;28;20166;-51
2022/09/08 11:55:25;;;;;;;392.95;234.63;;;;;;;;;;5090850;28;20227;-49
2022/09/08 11:58:00;;;;;;;388.50;233.75;;;;;;;;;;5090351;28;20174;-49
2022/09/08 12:00:38;;;;;;;399.58;235.73;;;;;;;;;;5090668;28;20272;-49
2022/09/08 12:03:22;;;;;;;401.92;241.63;;;;;;;;;;5090763;28;20253;-49
2022/09/08 12:06:03;;;;;;;401.27;242.65;;;;;;;;;;5090734;28;20178;-50
2022/09/08 12:08:46;;;;;;;394.88;240.90;;;;;;;;;;5091126;28;20197;-49
2022/09/08 12:11:28;;;;;;;391.77;236.13;;;;;;;;;;5090785;28;20158;-49
2022/09/08 12:14:02;;;;;;;374.73;225.05;;;;;;;;;;5090499;28;20200;-50
2022/09/08 12:16:47;;;;;;;399.20;237.75;;;;;;;;;;5090371;28;20774;-50
2022/09/08 12:19:32;;;;;;;405.67;239.48;;;;;;;;;;5090592;28;20178;-49
2022/09/08 12:22:08;;;;;;;393.15;235.05;;;;;;;;;;5090306;28;20590;-49
2022/09/08 12:24:34;;;;;;;401.10;236.45;;;;;;;;;;5089942;28;20194;-50
2022/09/08 12:27:01;;;;;;;360.75;220.07;;;;;;;;;;5090068;28;20179;-49
2022/09/08 12:29:51;;;;;;;390.35;228.43;;;;;;;;;;5090338;28;20229;-49
2022/09/08 12:32:26;;;;;;;418.02;244.45;;;;;;;;;;5090349;28;20166;-49
2022/09/08 12:35:12;;;;;;;383.23;225.20;;;;;;;;;;5090500;28;20181;-49
2022/09/08 12:37:38;;;;;;;398.33;231.15;;;;;;;;;;5090230;28;20245;-49
2022/09/08 12:40:14;;;;;;;391.60;238.35;;;;;;;;;;5090223;28;20223;-49
2022/09/08 12:42:59;;;;;;;374.05;227.98;;;;;;;;;;5090004;28;20178;-49
2022/09/08 12:45:27;;;;;;;401.80;240.18;;;;;;;;;;5089903;28;20594;-49
2022/09/08 12:47:53;;;;;;;391.98;238.95;;;;;;;;;;5089565;28;20190;-49
2022/09/08 12:50:25;;;;;;;412.00;241.50;;;;;;;;;;5090237;28;20194;-49
2022/09/08 12:53:06;;;;;;;395.80;239.55;;;;;;;;;;5090000;28;20174;-50
2022/09/08 12:55:32;;;;;;;392.63;234.23;;;;;;;;;;5089468;28;20197;-49
2022/09/08 12:58:01;;;;;;;392.08;233.70;;;;;;;;;;5089577;28;20702;-49
2022/09/08 13:00:43;;;;;;;400.60;237.38;;;;;;;;;;5089579;28;20186;-49
2022/09/08 13:03:18;;;;;;;404.88;235.75;;;;;;;;;;5089015;28;20173;-50
2022/09/08 13:05:44;;;;;;;390.00;235.43;;;;;;;;;;5089189;28;20146;-49
2022/09/08 13:08:17;;;;;;;400.25;251.73;;;;;;;;;;5086907;28;20833;-49
2022/09/08 13:10:49;;;;;;;385.35;236.55;;;;;;;;;;5089580;28;20159;-49
2022/09/08 13:13:15;;;;;;;383.40;239.02;;;;;;;;;;5089139;28;20612;-49
2022/09/08 13:16:00;;;;;;;418.80;258.85;;;;;;;;;;5086605;28;20182;-49
2022/09/08 13:18:26;;;;;;;391.27;243.52;;;;;;;;;;5088303;28;20182;-49
2022/09/08 13:20:55;;;;;;;388.83;237.68;;;;;;;;;;5089637;28;20181;-49
2022/09/08 13:23:39;;;;;;;390.70;237.48;;;;;;;;;;5089157;28;20260;-49
2022/09/08 13:26:24;;;;;;;388.60;235.93;;;;;;;;;;5089607;28;20186;-49
2022/09/08 13:28:52;;;;;;;391.88;245.45;;;;;;;;;;5089007;28;20205;-49
2022/09/08 13:31:37;;;;;;;384.83;240.73;;;;;;;;;;5089228;28;20216;-50
2022/09/08 13:34:13;;;;;;;371.95;240.65;;;;;;;;;;5088259;28;20183;-49
2022/09/08 13:36:46;;;;;;;367.80;237.32;;;;;;;;;;5090220;28;20219;-49
2022/09/08 13:39:30;;;;;;;382.33;243.32;;;;;;;;;;5087952;28;20212;-50
2022/09/08 13:42:15;;;;;;;384.92;244.70;;;;;;;;;;5089926;28;20170;-49
2022/09/08 13:45:01;;;;;;;365.50;234.20;;;;;;;;;;5089914;28;20190;-49
2022/09/08 13:47:35;;;;;;;382.08;240.82;;;;;;;;;;5090156;28;20664;-49
2022/09/08 13:50:16;;;;;;;363.50;230.95;;;;;;;;;;5090358;28;20194;-50
2022/09/08 13:53:01;;;;;;;389.40;239.00;;;;;;;;;;5090177;28;20174;-50
2022/09/08 13:55:49;;;;;;;359.58;234.43;;;;;;;;;;5090032;28;20190;-50
2022/09/08 13:58:35;;;;;;;365.80;229.27;;;;;;;;;;5090167;28;20154;-51
2022/09/08 14:01:08;;;;;;;355.13;224.90;;;;;;;;;;5082803;28;20193;-50
2022/09/08 14:03:46;;;;;;;368.40;232.10;;;;;;;;;;5089730;28;20175;-50
2022/09/08 14:06:14;;;;;;;357.55;222.80;;;;;;;;;;5090253;28;20649;-50
2022/09/08 14:08:46;;;;;;;361.40;228.35;;;;;;;;;;5089789;28;20277;-51
2022/09/08 14:11:24;;;;;;;352.77;223.52;;;;;;;;;;5090225;28;20202;-50
2022/09/08 14:13:50;;;;;;;356.42;226.10;;;;;;;;;;5089715;28;20354;-50
2022/09/08 14:16:26;;;;;;;359.55;229.27;;;;;;;;;;5089955;28;20249;-50
2022/09/08 14:19:05;;;;;;;324.55;209.48;;;;;;;;;;5088562;28;20173;-50
2022/09/08 14:21:40;;;;;;;349.40;213.45;;;;;;;;;;5089858;28;20269;-50
2022/09/08 14:24:09;;;;;;;355.83;218.40;;;;;;;;;;5089283;28;20201;-50